createdAt,value
2017-12-08T00:00:52.193Z,15.91
2017-12-08T00:01:52.200Z,14.77
2017-12-08T00:02:52.184Z,15.05
2017-12-08T00:03:52.416Z,14.39
2017-12-08T00:04:52.131Z,13.92
2017-12-08T00:05:52.113Z,13.07
2017-12-08T00:06:52.098Z,12.12
2017-12-08T00:07:52.081Z,11.27
2017-12-08T00:08:52.156Z,9.56
2017-12-08T00:09:52.070Z,9.19
2017-12-08T00:10:52.319Z,8.23
2017-12-08T00:11:52.293Z,7.1
2017-12-08T00:12:52.002Z,5.58
2017-12-08T00:13:51.989Z,4.92
2017-12-08T00:14:51.970Z,3.97
2017-12-08T00:15:51.976Z,3.13
2017-12-08T00:16:51.939Z,2.27
2017-12-08T00:17:52.199Z,0
2017-12-08T00:18:51.904Z,0
2017-12-08T00:19:51.941Z,0
2017-12-08T00:20:51.890Z,0
2017-12-08T00:21:52.128Z,0
2017-12-08T00:22:56.294Z,0
2017-12-08T00:23:51.827Z,0
2017-12-08T00:24:52.085Z,0
2017-12-08T00:25:51.791Z,0
2017-12-08T00:26:51.790Z,0
2017-12-08T00:27:51.769Z,0
2017-12-08T00:28:51.744Z,0
2017-12-08T00:29:51.728Z,0
2017-12-08T00:30:51.986Z,0
2017-12-08T00:31:51.968Z,0
2017-12-08T00:32:51.680Z,0
2017-12-08T00:33:51.938Z,0
2017-12-08T00:34:51.648Z,0
2017-12-08T00:35:51.639Z,0
2017-12-08T00:36:51.897Z,0
2017-12-08T00:37:51.601Z,0
2017-12-08T00:38:51.856Z,0
2017-12-08T00:39:51.640Z,0
2017-12-08T00:40:51.550Z,0
2017-12-08T00:41:51.533Z,0
2017-12-08T00:42:51.517Z,0
2017-12-08T00:43:51.516Z,0
2017-12-08T00:44:51.484Z,0
2017-12-08T00:45:51.744Z,0
2017-12-08T00:46:51.449Z,0
2017-12-08T00:47:51.435Z,0
2017-12-08T00:48:51.419Z,0
2017-12-08T00:49:51.403Z,0
2017-12-08T00:50:51.662Z,0
2017-12-08T00:51:51.368Z,0
2017-12-08T00:52:51.683Z,0
2017-12-08T00:53:51.613Z,0
2017-12-08T00:54:51.320Z,0
2017-12-08T00:55:51.302Z,0
2017-12-08T00:56:51.599Z,0
2017-12-08T00:57:51.272Z,0
2017-12-08T00:58:51.273Z,0
2017-12-08T00:59:51.534Z,0
2017-12-08T01:00:51.489Z,0
2017-12-08T01:01:51.214Z,0
2017-12-08T01:02:51.458Z,0
2017-12-08T01:03:51.220Z,0
2017-12-08T01:04:51.453Z,0
2017-12-08T01:05:51.139Z,0
2017-12-08T01:06:51.120Z,0
2017-12-08T01:07:51.103Z,0
2017-12-08T01:08:51.088Z,0
2017-12-08T01:09:51.342Z,0
2017-12-08T01:10:51.055Z,0
2017-12-08T01:11:51.037Z,0
2017-12-08T01:12:51.022Z,0
2017-12-08T01:13:51.277Z,0
2017-12-08T01:14:50.987Z,0
2017-12-08T01:15:50.993Z,0
2017-12-08T01:16:50.954Z,0
2017-12-08T01:17:51.215Z,0
2017-12-08T01:18:50.922Z,0
2017-12-08T01:19:50.903Z,0
2017-12-08T01:20:50.890Z,0
2017-12-08T01:21:51.143Z,0
2017-12-08T01:22:51.137Z,0
2017-12-08T01:23:50.836Z,0
2017-12-08T01:24:50.821Z,0
2017-12-08T01:25:50.856Z,0
2017-12-08T01:26:51.059Z,0
2017-12-08T01:27:50.772Z,0
2017-12-08T01:28:50.765Z,0
2017-12-08T01:29:50.742Z,0
2017-12-08T01:30:50.724Z,0
2017-12-08T01:31:50.703Z,0
2017-12-08T01:32:50.958Z,0
2017-12-08T01:33:50.671Z,0
2017-12-08T01:34:50.656Z,0
2017-12-08T01:35:50.637Z,0
2017-12-08T01:36:50.893Z,0
2017-12-08T01:37:50.876Z,0
2017-12-08T01:38:50.588Z,0
2017-12-08T01:39:50.570Z,0
2017-12-08T01:40:51.306Z,0
2017-12-08T01:41:50.820Z,0
2017-12-08T01:42:50.521Z,0
2017-12-08T01:43:50.504Z,0
2017-12-08T01:44:50.486Z,0
2017-12-08T01:45:50.472Z,0
2017-12-08T01:46:50.736Z,0
2017-12-08T01:47:50.715Z,0
2017-12-08T01:48:50.443Z,0
2017-12-08T01:49:50.673Z,0
2017-12-08T01:50:50.389Z,0
2017-12-08T01:51:50.371Z,0
2017-12-08T01:52:50.625Z,0
2017-12-08T01:53:50.635Z,0
2017-12-08T01:54:50.320Z,0
2017-12-08T01:55:50.334Z,0
2017-12-08T01:56:50.682Z,0
2017-12-08T01:57:50.543Z,0
2017-12-08T01:58:50.259Z,0
2017-12-08T01:59:50.259Z,0
2017-12-08T02:00:50.222Z,0
2017-12-08T02:01:50.216Z,0
2017-12-08T02:02:50.458Z,0
2017-12-08T02:03:50.230Z,0
2017-12-08T02:04:50.349Z,0
2017-12-08T02:05:50.139Z,0
2017-12-08T02:06:50.122Z,0
2017-12-08T02:07:50.124Z,0
2017-12-08T02:08:50.086Z,0
2017-12-08T02:09:50.073Z,0
2017-12-08T02:10:50.346Z,0
2017-12-08T02:11:50.040Z,0
2017-12-08T02:12:50.022Z,0
2017-12-08T02:13:50.006Z,0
2017-12-08T02:14:49.989Z,0
2017-12-08T02:15:49.973Z,0
2017-12-08T02:16:49.957Z,0
2017-12-08T02:17:49.939Z,0
2017-12-08T02:18:49.921Z,0
2017-12-08T02:19:50.179Z,0
2017-12-08T02:20:49.898Z,0
2017-12-08T02:21:50.149Z,0
2017-12-08T02:22:50.129Z,0
2017-12-08T02:23:50.186Z,0
2017-12-08T02:24:49.823Z,0
2017-12-08T02:25:49.805Z,0
2017-12-08T02:26:49.789Z,0
2017-12-08T02:27:50.044Z,0
2017-12-08T02:28:50.027Z,0
2017-12-08T02:29:49.739Z,0
2017-12-08T02:30:49.722Z,0
2017-12-08T02:31:49.721Z,0
2017-12-08T02:32:49.967Z,0
2017-12-08T02:33:49.673Z,0
2017-12-08T02:34:49.930Z,0
2017-12-08T02:35:49.639Z,0
2017-12-08T02:36:49.901Z,0
2017-12-08T02:37:49.877Z,0
2017-12-08T02:38:49.589Z,0
2017-12-08T02:39:49.574Z,0
2017-12-08T02:40:49.835Z,0
2017-12-08T02:41:49.539Z,0
2017-12-08T02:42:49.541Z,0
2017-12-08T02:43:49.531Z,0
2017-12-08T02:44:49.785Z,0
2017-12-08T02:45:49.495Z,0
2017-12-08T02:46:49.477Z,0
2017-12-08T02:47:49.735Z,0
2017-12-08T02:48:49.549Z,0
2017-12-08T02:49:49.514Z,0
2017-12-08T02:50:49.473Z,0
2017-12-08T02:51:49.546Z,0
2017-12-08T02:52:49.360Z,0
2017-12-08T02:53:49.480Z,0
2017-12-08T02:54:49.374Z,0
2017-12-08T02:55:49.464Z,0
2017-12-08T02:56:49.501Z,0
2017-12-08T02:57:49.556Z,0
2017-12-08T02:58:49.261Z,0
2017-12-08T02:59:49.242Z,0
2017-12-08T03:00:49.497Z,0
2017-12-08T03:01:49.208Z,0
2017-12-08T03:02:49.502Z,0
2017-12-08T03:03:49.467Z,0
2017-12-08T03:04:49.158Z,0
2017-12-08T03:05:49.142Z,0
2017-12-08T03:06:49.411Z,0
2017-12-08T03:07:49.110Z,0
2017-12-08T03:08:49.095Z,0
2017-12-08T03:09:49.345Z,0
2017-12-08T03:10:49.059Z,0
2017-12-08T03:11:49.350Z,0
2017-12-08T03:12:49.028Z,0
2017-12-08T03:13:49.292Z,0
2017-12-08T03:14:48.994Z,0
2017-12-08T03:15:49.271Z,0
2017-12-08T03:16:48.974Z,0
2017-12-08T03:17:49.220Z,0
2017-12-08T03:18:48.930Z,0
2017-12-08T03:19:48.912Z,0
2017-12-08T03:20:49.168Z,0
2017-12-08T03:21:48.882Z,0
2017-12-08T03:22:49.136Z,0
2017-12-08T03:23:48.867Z,0
2017-12-08T03:24:49.110Z,0
2017-12-08T03:25:48.813Z,0
2017-12-08T03:26:49.069Z,0
2017-12-08T03:27:48.780Z,0
2017-12-08T03:28:49.034Z,0
2017-12-08T03:29:48.750Z,0
2017-12-08T03:30:49.007Z,0
2017-12-08T03:31:48.716Z,0
2017-12-08T03:32:48.973Z,0
2017-12-08T03:33:48.696Z,0
2017-12-08T03:34:48.941Z,0
2017-12-08T03:35:48.675Z,0
2017-12-08T03:36:48.658Z,0
2017-12-08T03:37:48.887Z,0
2017-12-08T03:38:48.601Z,0
2017-12-08T03:39:48.596Z,0
2017-12-08T03:40:48.844Z,0
2017-12-08T03:41:48.823Z,0
2017-12-08T03:42:48.547Z,0
2017-12-08T03:43:48.518Z,0
2017-12-08T03:44:48.524Z,0
2017-12-08T03:45:48.488Z,0
2017-12-08T03:46:48.745Z,0
2017-12-08T03:47:48.455Z,0
2017-12-08T03:48:48.440Z,0
2017-12-08T03:49:48.470Z,0
2017-12-08T03:50:48.407Z,0
2017-12-08T03:51:48.661Z,0
2017-12-08T03:52:48.376Z,0
2017-12-08T03:53:48.636Z,0
2017-12-08T03:54:48.343Z,0
2017-12-08T03:55:48.327Z,0
2017-12-08T03:56:48.348Z,0
2017-12-08T03:57:48.296Z,0
2017-12-08T03:58:48.277Z,0
2017-12-08T03:59:48.262Z,0
2017-12-08T04:00:48.516Z,0
2017-12-08T04:01:48.229Z,0
2017-12-08T04:02:48.209Z,0
2017-12-08T04:03:48.468Z,0
2017-12-08T04:04:48.177Z,0
2017-12-08T04:05:48.171Z,0
2017-12-08T04:06:48.147Z,0
2017-12-08T04:07:48.130Z,0
2017-12-08T04:08:48.114Z,0
2017-12-08T04:09:48.098Z,0
2017-12-08T04:10:48.371Z,0
2017-12-08T04:11:48.065Z,0
2017-12-08T04:12:48.321Z,0
2017-12-08T04:13:48.033Z,0
2017-12-08T04:14:48.018Z,0
2017-12-08T04:15:48.269Z,0
2017-12-08T04:16:47.992Z,0
2017-12-08T04:17:47.968Z,0
2017-12-08T04:18:48.234Z,0
2017-12-08T04:19:47.935Z,0
2017-12-08T04:20:48.190Z,0
2017-12-08T04:21:48.191Z,0
2017-12-08T04:22:47.887Z,0
2017-12-08T04:23:48.139Z,0
2017-12-08T04:24:47.856Z,0
2017-12-08T04:25:47.837Z,0
2017-12-08T04:26:47.843Z,0
2017-12-08T04:27:48.075Z,0
2017-12-08T04:28:47.790Z,0
2017-12-08T04:29:48.049Z,0
2017-12-08T04:30:48.052Z,0
2017-12-08T04:31:47.738Z,0
2017-12-08T04:32:47.724Z,0
2017-12-08T04:33:47.979Z,0
2017-12-08T04:34:47.692Z,0
2017-12-08T04:35:47.693Z,0
2017-12-08T04:36:47.932Z,0
2017-12-08T04:37:47.912Z,0
2017-12-08T04:38:47.630Z,0
2017-12-08T04:39:47.612Z,0
2017-12-08T04:40:47.595Z,0
2017-12-08T04:41:47.853Z,0
2017-12-08T04:42:47.834Z,0
2017-12-08T04:43:47.547Z,0
2017-12-08T04:44:47.556Z,0
2017-12-08T04:45:47.788Z,0
2017-12-08T04:46:47.499Z,0
2017-12-08T04:47:47.482Z,0
2017-12-08T04:48:47.466Z,0
2017-12-08T04:49:47.450Z,0
2017-12-08T04:50:47.707Z,0
2017-12-08T04:51:47.424Z,0
2017-12-08T04:52:47.402Z,0
2017-12-08T04:53:47.389Z,0
2017-12-08T04:54:47.371Z,0
2017-12-08T04:55:47.628Z,0
2017-12-08T04:56:47.354Z,0
2017-12-08T04:57:47.322Z,0
2017-12-08T04:58:47.327Z,0
2017-12-08T04:59:47.559Z,0
2017-12-08T05:00:47.428Z,0
2017-12-08T05:01:47.260Z,0
2017-12-08T05:02:47.242Z,0
2017-12-08T05:03:47.226Z,0
2017-12-08T05:04:47.210Z,0
2017-12-08T05:05:47.195Z,0
2017-12-08T05:06:47.178Z,0
2017-12-08T05:07:47.167Z,0
2017-12-08T05:08:47.146Z,0
2017-12-08T05:09:47.129Z,0
2017-12-08T05:10:47.385Z,0
2017-12-08T05:11:47.098Z,0
2017-12-08T05:12:47.354Z,0
2017-12-08T05:13:47.065Z,0
2017-12-08T05:14:47.049Z,0
2017-12-08T05:15:47.307Z,0
2017-12-08T05:16:47.288Z,0
2017-12-08T05:17:47.277Z,0
2017-12-08T05:18:47.259Z,0
2017-12-08T05:19:46.970Z,0
2017-12-08T05:20:47.290Z,0
2017-12-08T05:21:46.947Z,0
2017-12-08T05:22:47.197Z,0
2017-12-08T05:23:46.915Z,0
2017-12-08T05:24:47.164Z,0
2017-12-08T05:25:46.876Z,0
2017-12-08T05:26:46.859Z,0
2017-12-08T05:27:46.845Z,0
2017-12-08T05:28:47.100Z,0
2017-12-08T05:29:46.813Z,0
2017-12-08T05:30:47.081Z,0
2017-12-08T05:31:46.781Z,0
2017-12-08T05:32:46.783Z,0
2017-12-08T05:33:46.749Z,0
2017-12-08T05:34:46.732Z,0
2017-12-08T05:35:46.994Z,0
2017-12-08T05:36:46.970Z,0
2017-12-08T05:37:46.967Z,0
2017-12-08T05:38:46.670Z,0
2017-12-08T05:39:46.928Z,0
2017-12-08T05:40:46.924Z,0
2017-12-08T05:41:46.912Z,0
2017-12-08T05:42:46.607Z,0
2017-12-08T05:43:46.591Z,0
2017-12-08T05:44:46.846Z,0
2017-12-08T05:45:46.560Z,0
2017-12-08T05:46:46.837Z,0
2017-12-08T05:47:46.529Z,0
2017-12-08T05:48:46.515Z,0
2017-12-08T05:49:46.498Z,0
2017-12-08T05:50:46.481Z,0
2017-12-08T05:51:46.466Z,0
2017-12-08T05:52:46.449Z,0
2017-12-08T05:53:46.701Z,0
2017-12-08T05:54:46.417Z,0
2017-12-08T05:55:46.673Z,0
2017-12-08T05:56:46.661Z,0
2017-12-08T05:57:46.651Z,0
2017-12-08T05:58:46.635Z,0
2017-12-08T05:59:46.634Z,0
2017-12-08T06:00:46.322Z,0
2017-12-08T06:01:46.576Z,0
2017-12-08T06:02:46.581Z,0
2017-12-08T06:03:46.548Z,0
2017-12-08T06:04:46.260Z,0
2017-12-08T06:05:46.242Z,0
2017-12-08T06:06:46.229Z,0
2017-12-08T06:07:46.491Z,0
2017-12-08T06:08:46.221Z,0
2017-12-08T06:09:46.451Z,0
2017-12-08T06:10:46.167Z,0
2017-12-08T06:11:46.151Z,0
2017-12-08T06:12:46.134Z,0
2017-12-08T06:13:46.390Z,0
2017-12-08T06:14:46.378Z,0
2017-12-08T06:15:46.086Z,0
2017-12-08T06:16:46.348Z,0
2017-12-08T06:17:46.069Z,0
2017-12-08T06:18:46.040Z,0
2017-12-08T06:19:46.023Z,0
2017-12-08T06:20:46.281Z,0
2017-12-08T06:21:46.265Z,0
2017-12-08T06:22:45.977Z,0
2017-12-08T06:23:45.962Z,0
2017-12-08T06:24:45.945Z,0
2017-12-08T06:25:45.931Z,0
2017-12-08T06:26:45.923Z,0
2017-12-08T06:27:46.171Z,0
2017-12-08T06:28:46.154Z,0
2017-12-08T06:29:45.865Z,0
2017-12-08T06:30:45.853Z,0
2017-12-08T06:31:46.107Z,0
2017-12-08T06:32:46.094Z,0
2017-12-08T06:33:45.805Z,0
2017-12-08T06:34:45.787Z,0
2017-12-08T06:35:45.774Z,0
2017-12-08T06:36:45.757Z,0
2017-12-08T06:37:46.012Z,0
2017-12-08T06:38:45.996Z,0
2017-12-08T06:39:45.987Z,0
2017-12-08T06:40:45.713Z,0
2017-12-08T06:41:45.680Z,0
2017-12-08T06:42:45.663Z,0
2017-12-08T06:43:45.919Z,0
2017-12-08T06:44:45.631Z,0
2017-12-08T06:45:45.631Z,0
2017-12-08T06:46:45.600Z,0
2017-12-08T06:47:45.585Z,0
2017-12-08T06:48:45.569Z,0
2017-12-08T06:49:45.823Z,0
2017-12-08T06:50:45.813Z,0
2017-12-08T06:51:45.521Z,0
2017-12-08T06:52:45.505Z,0
2017-12-08T06:53:45.488Z,0
2017-12-08T06:54:45.475Z,0
2017-12-08T06:55:45.731Z,0
2017-12-08T06:56:45.714Z,0
2017-12-08T06:57:45.428Z,0
2017-12-08T06:58:45.416Z,0
2017-12-08T06:59:45.396Z,0
2017-12-08T07:00:45.382Z,0
2017-12-08T07:01:45.642Z,0
2017-12-08T07:02:45.349Z,0
2017-12-08T07:03:45.606Z,0
2017-12-08T07:04:45.319Z,0
2017-12-08T07:05:45.304Z,0
2017-12-08T07:06:45.287Z,0
2017-12-08T07:07:45.269Z,0
2017-12-08T07:08:45.254Z,0
2017-12-08T07:09:45.537Z,0
2017-12-08T07:10:45.535Z,0
2017-12-08T07:11:45.253Z,0
2017-12-08T07:12:45.232Z,0
2017-12-08T07:13:45.224Z,0
2017-12-08T07:14:45.480Z,0
2017-12-08T07:15:45.168Z,0
2017-12-08T07:16:45.178Z,0
2017-12-08T07:17:45.196Z,0
2017-12-08T07:18:45.377Z,0
2017-12-08T07:19:45.163Z,0
2017-12-08T07:20:45.401Z,0
2017-12-08T07:21:45.082Z,0
2017-12-08T07:22:45.336Z,0
2017-12-08T07:23:45.022Z,0
2017-12-08T07:24:45.051Z,0
2017-12-08T07:25:45.286Z,0
2017-12-08T07:26:45.016Z,0
2017-12-08T07:27:45.021Z,0
2017-12-08T07:28:45.269Z,0
2017-12-08T07:29:44.973Z,0
2017-12-08T07:30:45.175Z,0
2017-12-08T07:31:44.892Z,0
2017-12-08T07:32:44.872Z,0
2017-12-08T07:33:44.859Z,0
2017-12-08T07:34:44.842Z,0
2017-12-08T07:35:45.095Z,0
2017-12-08T07:36:44.809Z,0
2017-12-08T07:37:45.068Z,0
2017-12-08T07:38:44.779Z,0
2017-12-08T07:39:44.762Z,0
2017-12-08T07:40:44.746Z,0
2017-12-08T07:41:44.734Z,0
2017-12-08T07:42:44.985Z,0
2017-12-08T07:43:44.698Z,0
2017-12-08T07:44:44.683Z,0
2017-12-08T07:45:44.666Z,0
2017-12-08T07:46:44.664Z,0
2017-12-08T07:47:44.904Z,0
2017-12-08T07:48:44.619Z,0
2017-12-08T07:49:44.605Z,0
2017-12-08T07:50:44.585Z,0
2017-12-08T07:51:44.844Z,0
2017-12-08T07:52:44.826Z,0
2017-12-08T07:53:44.542Z,0
2017-12-08T07:54:44.519Z,0
2017-12-08T07:55:44.506Z,0
2017-12-08T07:56:44.781Z,0
2017-12-08T07:57:44.474Z,0
2017-12-08T07:58:44.735Z,0
2017-12-08T07:59:44.732Z,0
2017-12-08T08:00:44.701Z,0
2017-12-08T08:01:44.409Z,1.14
2017-12-08T08:02:44.391Z,4.07
2017-12-08T08:03:44.377Z,5.3
2017-12-08T08:04:44.633Z,5.11
2017-12-08T08:05:44.345Z,4.64
2017-12-08T08:06:44.330Z,4.16
2017-12-08T08:07:44.312Z,3.88
2017-12-08T08:08:44.306Z,3.69
2017-12-08T08:09:44.296Z,3.88
2017-12-08T08:10:44.264Z,3.78
2017-12-08T08:11:44.248Z,3.13
2017-12-08T08:12:44.232Z,2.27
2017-12-08T08:13:44.487Z,1.32
2017-12-08T08:14:44.218Z,1.61
2017-12-08T08:15:44.181Z,2.27
2017-12-08T08:16:44.447Z,2.27
2017-12-08T08:17:44.423Z,2.08
2017-12-08T08:18:44.135Z,1.14
2017-12-08T08:19:44.118Z,0.76
2017-12-08T08:20:44.381Z,0.19
2017-12-08T08:21:44.360Z,0
2017-12-08T08:22:44.090Z,0
2017-12-08T08:23:44.055Z,0
2017-12-08T08:24:44.310Z,0
2017-12-08T08:25:44.022Z,0
2017-12-08T08:26:44.017Z,0
2017-12-08T08:27:44.267Z,0
2017-12-08T08:28:43.978Z,0
2017-12-08T08:29:43.959Z,0
2017-12-08T08:30:43.947Z,0
2017-12-08T08:31:44.200Z,0
2017-12-08T08:32:44.182Z,0
2017-12-08T08:33:43.895Z,0
2017-12-08T08:34:43.879Z,0
2017-12-08T08:35:43.872Z,0
2017-12-08T08:36:43.849Z,0
2017-12-08T08:37:44.113Z,0
2017-12-08T08:38:44.085Z,0
2017-12-08T08:39:44.078Z,0
2017-12-08T08:40:44.057Z,0
2017-12-08T08:41:44.041Z,0.09
2017-12-08T08:42:43.762Z,0
2017-12-08T08:43:43.736Z,0
2017-12-08T08:44:43.719Z,0
2017-12-08T08:45:44.234Z,2.17
2017-12-08T08:46:43.688Z,3.88
2017-12-08T08:47:43.690Z,4.54
2017-12-08T08:48:43.657Z,4.92
2017-12-08T08:49:43.642Z,5.68
2017-12-08T08:50:43.894Z,5.87
2017-12-08T08:51:43.881Z,6.63
2017-12-08T08:52:43.592Z,6.53
2017-12-08T08:53:43.574Z,7.01
2017-12-08T08:54:43.571Z,7.76
2017-12-08T08:55:43.816Z,10.7
2017-12-08T08:56:43.527Z,13.16
2017-12-08T08:57:43.783Z,13.92
2017-12-08T08:58:43.499Z,13.26
2017-12-08T08:59:43.481Z,12.97
2017-12-08T09:00:43.465Z,14.11
2017-12-08T09:01:43.473Z,12.97
2017-12-08T09:02:43.703Z,12.88
2017-12-08T09:03:43.686Z,13.54
2017-12-08T09:04:43.400Z,12.88
2017-12-08T09:05:43.389Z,14.01
2017-12-08T09:06:43.368Z,16.85
2017-12-08T09:07:43.352Z,15.91
2017-12-08T09:08:43.337Z,15.05
2017-12-08T09:09:43.322Z,14.2
2017-12-08T09:10:43.305Z,14.2
2017-12-08T09:11:43.561Z,14.11
2017-12-08T09:12:43.275Z,13.45
2017-12-08T09:13:43.258Z,11.65
2017-12-08T09:14:43.514Z,11.17
2017-12-08T09:15:43.245Z,10.7
2017-12-08T09:16:43.499Z,10.98
2017-12-08T09:17:43.472Z,10.89
2017-12-08T09:18:43.179Z,11.55
2017-12-08T09:19:43.162Z,11.93
2017-12-08T09:20:43.145Z,12.12
2017-12-08T09:21:43.402Z,11.36
2017-12-08T09:22:43.113Z,10.03
2017-12-08T09:23:43.098Z,9.37
2017-12-08T09:24:43.083Z,8.99
2017-12-08T09:25:43.341Z,9.56
2017-12-08T09:26:43.321Z,8.89
2017-12-08T09:27:43.367Z,8.33
2017-12-08T09:28:43.292Z,8.23
2017-12-08T09:29:43.039Z,8.61
2017-12-08T09:30:42.989Z,9.08
2017-12-08T09:31:43.249Z,8.33
2017-12-08T09:32:42.954Z,8.04
2017-12-08T09:33:42.937Z,7.19
2017-12-08T09:34:43.006Z,6.24
2017-12-08T09:35:42.905Z,6.43
2017-12-08T09:36:42.886Z,6.72
2017-12-08T09:37:43.144Z,9.27
2017-12-08T09:38:43.134Z,14.2
2017-12-08T09:39:42.846Z,17.03
2017-12-08T09:40:42.822Z,19.31
2017-12-08T09:41:42.809Z,19.68
2017-12-08T09:42:43.063Z,21.58
2017-12-08T09:43:42.774Z,22.9
2017-12-08T09:44:42.759Z,23.28
2017-12-08T09:45:43.016Z,25.27
2017-12-08T09:46:42.996Z,25.65
2017-12-08T09:47:42.710Z,24.7
2017-12-08T09:48:42.693Z,24.61
2017-12-08T09:49:42.677Z,29.62
2017-12-08T09:50:42.953Z,33.79
2017-12-08T09:51:42.642Z,34.45
2017-12-08T09:52:42.629Z,36.63
2017-12-08T09:53:42.611Z,37.29
2017-12-08T09:54:42.595Z,39.18
2017-12-08T09:55:42.579Z,39.28
2017-12-08T09:56:42.563Z,38.14
2017-12-08T09:57:42.548Z,43.54
2017-12-08T09:58:42.803Z,42.5
2017-12-08T09:59:42.787Z,41.83
2017-12-08T10:00:42.497Z,42.11
2017-12-08T10:01:42.481Z,41.46
2017-12-08T10:02:42.463Z,41.74
2017-12-08T10:03:42.451Z,45.72
2017-12-08T10:04:42.490Z,45.9
2017-12-08T10:05:42.444Z,46.47
2017-12-08T10:06:42.669Z,46.94
2017-12-08T10:07:42.383Z,45.9
2017-12-08T10:08:42.372Z,44.39
2017-12-08T10:09:42.352Z,44.86
2017-12-08T10:10:42.335Z,43.73
2017-12-08T10:11:42.321Z,44.96
2017-12-08T10:12:42.317Z,47.34
2017-12-08T10:13:42.580Z,47.82
2017-12-08T10:14:42.287Z,52.75
2017-12-08T10:15:42.255Z,57.2
2017-12-08T10:16:42.517Z,58.43
2017-12-08T10:17:42.229Z,58.14
2017-12-08T10:18:42.205Z,58.33
2017-12-08T10:19:42.191Z,60.89
2017-12-08T10:20:42.177Z,63.92
2017-12-08T10:21:42.158Z,65.66
2017-12-08T10:22:42.141Z,65.56
2017-12-08T10:23:42.127Z,62.15
2017-12-08T10:24:42.112Z,64.9
2017-12-08T10:25:42.095Z,65
2017-12-08T10:26:42.080Z,62.05
2017-12-08T10:27:42.333Z,65.47
2017-12-08T10:28:42.048Z,68.02
2017-12-08T10:29:42.304Z,67.36
2017-12-08T10:30:42.285Z,66.38
2017-12-08T10:31:42.269Z,66.38
2017-12-08T10:32:41.981Z,64.39
2017-12-08T10:33:42.238Z,63.45
2017-12-08T10:34:41.952Z,60.61
2017-12-08T10:35:42.217Z,60.61
2017-12-08T10:36:42.198Z,58.14
2017-12-08T10:37:42.179Z,55.87
2017-12-08T10:38:42.170Z,56.25
2017-12-08T10:39:42.144Z,56.06
2017-12-08T10:40:42.135Z,57.01
2017-12-08T10:41:41.850Z,55.02
2017-12-08T10:42:42.098Z,53.31
2017-12-08T10:43:41.809Z,53.13
2017-12-08T10:44:42.069Z,53.5
2017-12-08T10:45:42.071Z,51.99
2017-12-08T10:46:41.762Z,51.32
2017-12-08T10:47:41.746Z,51.8
2017-12-08T10:48:41.732Z,53.78
2017-12-08T10:49:41.714Z,53.88
2017-12-08T10:50:41.716Z,53.13
2017-12-08T10:51:41.954Z,49.33
2017-12-08T10:52:41.669Z,47.94
2017-12-08T10:53:41.658Z,52.01
2017-12-08T10:54:41.905Z,52.39
2017-12-08T10:55:41.639Z,54.1
2017-12-08T10:56:41.606Z,56.66
2017-12-08T10:57:41.858Z,58.26
2017-12-08T10:58:41.574Z,56.09
2017-12-08T10:59:41.560Z,55.33
2017-12-08T11:00:41.545Z,53.53
2017-12-08T11:01:41.802Z,54.1
2017-12-08T11:02:41.509Z,53.81
2017-12-08T11:03:41.495Z,53.25
2017-12-08T11:04:41.480Z,54.1
2017-12-08T11:05:41.736Z,54.93
2017-12-08T11:06:41.449Z,55.24
2017-12-08T11:07:41.435Z,54.47
2017-12-08T11:08:41.687Z,54
2017-12-08T11:09:41.423Z,56.85
2017-12-08T11:10:41.386Z,55.99
2017-12-08T11:11:41.400Z,55.9
2017-12-08T11:12:41.626Z,58.93
2017-12-08T11:13:41.343Z,59.59
2017-12-08T11:14:41.614Z,59.22
2017-12-08T11:15:41.307Z,58.45
2017-12-08T11:16:41.293Z,57.23
2017-12-08T11:17:41.549Z,54.19
2017-12-08T11:18:41.266Z,55.33
2017-12-08T11:19:41.258Z,55.33
2017-12-08T11:20:41.235Z,55.99
2017-12-08T11:21:41.216Z,54
2017-12-08T11:22:41.199Z,52.65
2017-12-08T11:23:41.453Z,52.56
2017-12-08T11:24:41.443Z,49.81
2017-12-08T11:25:41.423Z,51.89
2017-12-08T11:26:41.138Z,47.06
2017-12-08T11:27:41.120Z,44.2
2017-12-08T11:28:41.121Z,41.83
2017-12-08T11:29:41.089Z,37.01
2017-12-08T11:30:41.091Z,32.84
2017-12-08T11:31:41.329Z,27.26
2017-12-08T11:32:41.320Z,22.62
2017-12-08T11:33:41.023Z,19.01
2017-12-08T11:34:41.279Z,15.33
2017-12-08T11:35:40.992Z,10.5
2017-12-08T11:36:41.250Z,6.62
2017-12-08T11:37:41.228Z,3.31
2017-12-08T11:38:40.943Z,1.04
2017-12-08T11:39:41.196Z,0
2017-12-08T11:40:40.909Z,0
2017-12-08T11:41:40.893Z,0
2017-12-08T11:42:40.876Z,0
2017-12-08T11:43:40.858Z,0
2017-12-08T11:44:40.846Z,0
2017-12-08T11:45:41.098Z,0
2017-12-08T11:46:40.821Z,0
2017-12-08T11:47:41.069Z,0
2017-12-08T11:48:41.044Z,0
2017-12-08T11:49:40.755Z,0
2017-12-08T11:50:40.739Z,0
2017-12-08T11:51:40.721Z,0
2017-12-08T11:52:40.703Z,0
2017-12-08T11:53:40.687Z,0
2017-12-08T11:54:40.668Z,0
2017-12-08T11:55:40.937Z,0
2017-12-08T11:56:40.906Z,0
2017-12-08T11:57:40.618Z,0
2017-12-08T11:58:40.601Z,0
2017-12-08T11:59:40.592Z,0
2017-12-08T12:00:40.567Z,0
2017-12-08T12:01:40.560Z,0
2017-12-08T12:02:40.531Z,0
2017-12-08T12:03:40.514Z,0
2017-12-08T12:04:40.498Z,0
2017-12-08T12:05:40.759Z,0
2017-12-08T12:06:40.463Z,0
2017-12-08T12:07:40.448Z,0
2017-12-08T12:08:40.699Z,0
2017-12-08T12:09:40.705Z,0
2017-12-08T12:10:40.684Z,0
2017-12-08T12:11:40.392Z,0
2017-12-08T12:12:40.631Z,0
2017-12-08T12:13:40.614Z,0
2017-12-08T12:14:40.427Z,0
2017-12-08T12:15:40.310Z,0
2017-12-08T12:16:40.292Z,0.28
2017-12-08T12:17:40.291Z,2.55
2017-12-08T12:18:40.259Z,2.93
2017-12-08T12:19:40.242Z,5.2
2017-12-08T12:20:40.224Z,6.9
2017-12-08T12:21:40.207Z,7.85
2017-12-08T12:22:40.460Z,7.66
2017-12-08T12:23:40.174Z,11.63
2017-12-08T12:24:40.155Z,13.71
2017-12-08T12:25:40.159Z,14.47
2017-12-08T12:26:40.122Z,15.33
2017-12-08T12:27:40.115Z,14.85
2017-12-08T12:28:40.365Z,14.28
2017-12-08T12:29:40.069Z,12.96
2017-12-08T12:30:40.324Z,11.16
2017-12-08T12:31:40.310Z,10.41
2017-12-08T12:32:40.309Z,11.92
2017-12-08T12:33:40.274Z,10.88
2017-12-08T12:34:39.984Z,9.46
2017-12-08T12:35:39.966Z,9.27
2017-12-08T12:36:39.949Z,11.07
2017-12-08T12:37:39.932Z,12.77
2017-12-08T12:38:40.185Z,12.77
2017-12-08T12:39:39.898Z,14.09
2017-12-08T12:40:40.149Z,16.93
2017-12-08T12:41:40.135Z,16.93
2017-12-08T12:42:39.845Z,17.31
2017-12-08T12:43:40.100Z,22.14
2017-12-08T12:44:39.809Z,23.27
2017-12-08T12:45:40.083Z,23.46
2017-12-08T12:46:39.776Z,23.84
2017-12-08T12:47:39.758Z,23.36
2017-12-08T12:48:40.018Z,24.22
2017-12-08T12:49:39.726Z,25.73
2017-12-08T12:50:39.983Z,26.3
2017-12-08T12:51:39.961Z,25.63
2017-12-08T12:52:39.945Z,27.53
2017-12-08T12:53:39.661Z,28.19
2017-12-08T12:54:39.927Z,29.52
2017-12-08T12:55:39.633Z,31.98
2017-12-08T12:56:39.879Z,31.98
2017-12-08T12:57:39.874Z,30.46
2017-12-08T12:58:39.840Z,30.55
2017-12-08T12:59:39.552Z,31.5
2017-12-08T13:00:39.538Z,33.12
2017-12-08T13:01:39.796Z,36.04
2017-12-08T13:02:39.502Z,36.04
2017-12-08T13:03:39.484Z,36.61
2017-12-08T13:04:39.468Z,39.17
2017-12-08T13:05:39.724Z,38.79
2017-12-08T13:06:39.727Z,35.76
2017-12-08T13:07:39.415Z,34.44
2017-12-08T13:08:39.668Z,35.38
2017-12-08T13:09:39.394Z,36.52
2017-12-08T13:10:39.681Z,37.93
2017-12-08T13:11:39.434Z,41.63
2017-12-08T13:12:39.332Z,40.87
2017-12-08T13:13:39.321Z,47.96
2017-12-08T13:14:39.304Z,51.75
2017-12-08T13:15:39.279Z,55.25
2017-12-08T13:16:39.536Z,56.67
2017-12-08T13:17:39.518Z,60.55
2017-12-08T13:18:39.232Z,63.29
2017-12-08T13:19:39.211Z,63.29
2017-12-08T13:20:39.485Z,58.09
2017-12-08T13:21:39.178Z,55.82
2017-12-08T13:22:39.160Z,56.01
2017-12-08T13:23:39.415Z,57.04
2017-12-08T13:24:39.127Z,60.17
2017-12-08T13:25:39.139Z,60.83
2017-12-08T13:26:39.363Z,59.03
2017-12-08T13:27:39.351Z,56.95
2017-12-08T13:28:39.062Z,57.04
2017-12-08T13:29:39.061Z,58.75
2017-12-08T13:30:39.023Z,58.37
2017-12-08T13:31:39.004Z,60.55
2017-12-08T13:32:39.259Z,58.56
2017-12-08T13:33:38.973Z,58.09
2017-12-08T13:34:38.953Z,61.58
2017-12-08T13:35:39.215Z,60.64
2017-12-08T13:36:39.199Z,58.84
2017-12-08T13:37:38.902Z,62.63
2017-12-08T13:38:38.895Z,61.68
2017-12-08T13:39:38.868Z,65.56
2017-12-08T13:40:39.122Z,67.17
2017-12-08T13:41:39.121Z,65.09
2017-12-08T13:42:38.834Z,62.44
2017-12-08T13:43:38.799Z,60.55
2017-12-08T13:44:38.788Z,57.99
2017-12-08T13:45:38.764Z,60.93
2017-12-08T13:46:39.019Z,60.64
2017-12-08T13:47:38.743Z,61.49
2017-12-08T13:48:38.710Z,59.79
2017-12-08T13:49:38.970Z,60.64
2017-12-08T13:50:38.679Z,58.09
2017-12-08T13:51:38.972Z,57.23
2017-12-08T13:52:38.645Z,54.21
2017-12-08T13:53:38.628Z,49.85
2017-12-08T13:54:38.900Z,49.57
2017-12-08T13:55:38.592Z,48.06
2017-12-08T13:56:38.847Z,50.33
2017-12-08T13:57:38.831Z,51.56
2017-12-08T13:58:38.813Z,53.17
2017-12-08T13:59:38.796Z,55.15
2017-12-08T14:00:38.506Z,59.69
2017-12-08T14:01:38.759Z,61.21
2017-12-08T14:02:38.473Z,60.45
2017-12-08T14:03:38.724Z,59.69